Time;durP1;ratioP1;P1;durP2;ratioP2;P2;SDS_P1;SDS_P2;PMS_P1;PMS_P2;Temp;Humidity;BMP_temperature;BMP_pressure;BME280_temperature;BME280_humidity;BME280_pressure;Samples;Min_cycle;Max_cycle;Signal;HPM_P1;HPM_P2
2021/12/29 00:00:39;;;;;;;9.40;7.22;;;;;;;-140.79;100.00;63287.88;5025354;28;20491;-52
2021/12/29 00:03:04;;;;;;;10.05;7.72;;;;;;;-140.79;100.00;63287.88;5024996;28;20036;-52
2021/12/29 00:05:30;;;;;;;10.90;7.60;;;;;;;-140.79;100.00;63287.88;5025044;28;20037;-52
2021/12/29 00:07:55;;;;;;;10.70;7.72;;;;;;;-140.79;100.00;63287.88;5025186;28;20041;-52
2021/12/29 00:10:20;;;;;;;10.98;7.55;;;;;;;-140.79;100.00;63287.88;5024902;28;20033;-51
2021/12/29 00:12:50;;;;;;;9.35;7.10;;;;;;;-140.79;100.00;63287.88;5024914;28;20033;-52
2021/12/29 00:15:16;;;;;;;9.27;7.43;;;;;;;-140.79;100.00;63287.88;5025054;28;20128;-53
2021/12/29 00:17:44;;;;;;;10.05;7.35;;;;;;;-140.79;100.00;63287.88;5025256;28;20029;-52
2021/12/29 00:20:10;;;;;;;11.13;8.02;;;;;;;-140.79;100.00;63287.88;5025063;28;20466;-53
2021/12/29 00:22:35;;;;;;;10.60;7.90;;;;;;;-140.79;100.00;63287.88;5024949;28;20046;-52
2021/12/29 00:25:01;;;;;;;11.07;7.60;;;;;;;-140.79;100.00;63287.88;5024972;28;20025;-53
2021/12/29 00:27:26;;;;;;;11.93;8.40;;;;;;;-140.79;100.00;63287.88;5024880;28;20038;-52
2021/12/29 00:29:52;;;;;;;10.48;7.78;;;;;;;-140.79;100.00;63287.88;5024904;28;20487;-52
2021/12/29 00:32:17;;;;;;;10.93;8.20;;;;;;;-140.79;100.00;63287.88;5024576;28;20029;-52
2021/12/29 00:34:42;;;;;;;10.95;7.45;;;;;;;-140.79;100.00;63287.88;5024882;28;20496;-52
2021/12/29 00:37:08;;;;;;;11.02;8.00;;;;;;;-140.79;100.00;63287.88;5024855;28;20670;-54
2021/12/29 00:39:33;;;;;;;10.52;7.32;;;;;;;-140.79;100.00;63287.88;5024699;28;20056;-52
2021/12/29 00:41:59;;;;;;;11.38;8.30;;;;;;;-140.79;100.00;63287.88;5024873;28;20037;-54
2021/12/29 00:44:24;;;;;;;10.35;8.10;;;;;;;-140.79;100.00;63287.88;5024521;28;20484;-52
2021/12/29 00:46:53;;;;;;;11.55;8.18;;;;;;;-140.79;100.00;63287.88;5040137;28;20046;-52
2021/12/29 00:49:19;;;;;;;11.32;8.38;;;;;;;-140.79;100.00;63287.88;5023583;28;20735;-53
2021/12/29 00:51:45;;;;;;;10.90;8.27;;;;;;;-140.79;100.00;63287.88;5024766;28;20041;-52
2021/12/29 00:54:10;;;;;;;11.05;8.35;;;;;;;-140.79;100.00;63287.88;5025880;28;20040;-52
2021/12/29 00:56:37;;;;;;;11.50;8.70;;;;;;;-140.79;100.00;63287.88;5028296;28;20538;-53
2021/12/29 00:59:02;;;;;;;11.35;8.73;;;;;;;-140.79;100.00;63287.88;5028269;28;20026;-52
2021/12/29 01:01:29;;;;;;;11.32;8.27;;;;;;;-140.79;100.00;63287.88;5028227;28;20029;-52
2021/12/29 01:03:55;;;;;;;11.15;8.35;;;;;;;-140.79;100.00;63287.88;5028117;28;20376;-52
2021/12/29 01:06:20;;;;;;;11.27;8.18;;;;;;;-140.79;100.00;63287.88;5027948;28;20508;-52
2021/12/29 01:08:45;;;;;;;12.43;8.70;;;;;;;-140.79;100.00;63287.88;5028099;28;20022;-52
2021/12/29 01:11:11;;;;;;;10.82;8.05;;;;;;;-140.79;100.00;63287.88;5043931;28;20413;-54
2021/12/29 01:13:44;;;;;;;12.77;9.10;;;;;;;-140.79;100.00;63287.88;5027967;28;20095;-53
2021/12/29 01:16:36;;;;;;;11.70;8.40;;;;;;;-140.79;100.00;63287.88;5028204;28;20039;-53
2021/12/29 01:18:55;;;;;;;11.82;8.32;;;;;;;-140.79;100.00;63287.88;5028271;28;20041;-54
2021/12/29 01:21:21;;;;;;;11.80;8.93;;;;;;;-140.79;100.00;63287.88;5028234;28;20477;-53
2021/12/29 01:23:46;;;;;;;14.57;9.45;;;;;;;-140.79;100.00;63287.88;5027499;28;20401;-53
2021/12/29 01:26:12;;;;;;;11.82;8.60;;;;;;;-140.79;100.00;63287.88;5027776;28;20044;-53
2021/12/29 01:28:37;;;;;;;13.15;8.85;;;;;;;-140.79;100.00;63287.88;5027576;28;20481;-53
2021/12/29 01:31:03;;;;;;;11.45;8.15;;;;;;;-140.79;100.00;63287.88;5027480;28;20036;-53
2021/12/29 01:33:28;;;;;;;12.10;8.57;;;;;;;-140.79;100.00;63287.88;5027292;28;20048;-52
2021/12/29 01:35:54;;;;;;;12.57;9.13;;;;;;;-140.79;100.00;63287.88;5027467;28;20045;-52
2021/12/29 01:38:20;;;;;;;11.95;9.07;;;;;;;-140.79;100.00;63287.88;5027060;28;20029;-53
2021/12/29 01:40:48;;;;;;;11.68;9.00;;;;;;;-140.79;100.00;63287.88;5027136;28;20065;-52
2021/12/29 01:43:14;;;;;;;12.50;9.10;;;;;;;-140.79;100.00;63287.88;5027147;28;20107;-53
2021/12/29 01:45:39;;;;;;;11.20;8.65;;;;;;;-140.79;100.00;63287.88;5026907;28;20065;-53
2021/12/29 01:48:05;;;;;;;12.88;9.40;;;;;;;-140.79;100.00;63287.88;5027178;28;20028;-53
2021/12/29 01:50:31;;;;;;;13.48;9.50;;;;;;;-140.79;100.00;63287.88;5026480;28;20750;-51
2021/12/29 01:53:02;;;;;;;14.63;9.48;;;;;;;-140.79;100.00;63287.88;5027096;28;20030;-51
2021/12/29 01:55:30;;;;;;;13.88;9.57;;;;;;;-140.79;100.00;63287.88;5026944;28;20017;-52
2021/12/29 01:57:56;;;;;;;13.05;8.90;;;;;;;-140.79;100.00;63287.88;5026690;28;20037;-52
2021/12/29 02:00:23;;;;;;;12.57;9.10;;;;;;;-140.79;100.00;63287.88;5026247;28;20079;-51
2021/12/29 02:02:49;;;;;;;12.07;8.95;;;;;;;-140.79;100.00;63287.88;5026596;28;20067;-52
2021/12/29 02:05:15;;;;;;;12.10;8.85;;;;;;;-140.79;100.00;63287.88;5025905;28;20052;-53
2021/12/29 02:07:41;;;;;;;13.50;9.60;;;;;;;-140.79;100.00;63287.88;5026416;28;20073;-53
2021/12/29 02:10:07;;;;;;;12.57;9.15;;;;;;;-140.79;100.00;63287.88;5025122;28;20491;-53
2021/12/29 02:12:33;;;;;;;13.02;9.35;;;;;;;-140.79;100.00;63287.88;5026225;28;20044;-53
2021/12/29 02:14:58;;;;;;;12.77;8.80;;;;;;;-140.79;100.00;63287.88;5026525;28;20124;-52
2021/12/29 02:17:24;;;;;;;12.05;9.40;;;;;;;-140.79;100.00;63287.88;5026519;28;20029;-52
2021/12/29 02:19:51;;;;;;;12.75;8.85;;;;;;;-140.79;100.00;63287.88;5026302;28;20029;-52
2021/12/29 02:22:36;;;;;;;12.65;9.25;;;;;;;-140.79;100.00;63287.88;5025988;28;20045;-52
2021/12/29 02:27:43;;;;;;;12.20;8.52;;;;;;;-140.79;100.00;63287.88;5026285;28;20478;-51
2021/12/29 02:30:09;;;;;;;13.40;9.77;;;;;;;-140.79;100.00;63287.88;5026113;28;20107;-53
2021/12/29 02:32:34;;;;;;;10.70;8.90;;;;;;;-140.79;100.00;63287.88;5026242;28;20037;-51
2021/12/29 02:35:00;;;;;;;13.52;8.90;;;;;;;-140.79;100.00;63287.88;5026037;28;20480;-51
2021/12/29 02:37:26;;;;;;;13.55;9.38;;;;;;;-140.79;100.00;63287.88;5026116;28;20045;-52
2021/12/29 02:39:52;;;;;;;12.68;9.35;;;;;;;-140.79;100.00;63287.88;5025979;28;20029;-51
2021/12/29 02:42:19;;;;;;;12.80;9.23;;;;;;;-140.79;100.00;63287.88;5025690;28;20037;-53
2021/12/29 02:44:46;;;;;;;12.05;8.57;;;;;;;-140.79;100.00;63287.88;5026032;28;20112;-52
2021/12/29 02:47:11;;;;;;;13.52;9.70;;;;;;;-140.79;100.00;63287.88;5025715;28;20072;-52
2021/12/29 02:49:37;;;;;;;13.00;9.13;;;;;;;-140.79;100.00;63287.88;5025890;28;20021;-51
2021/12/29 02:52:03;;;;;;;11.40;8.80;;;;;;;-140.79;100.00;63287.88;5025856;28;20025;-52
2021/12/29 02:54:28;;;;;;;13.88;9.68;;;;;;;-140.79;100.00;63287.88;5024123;28;20415;-51
2021/12/29 02:56:57;;;;;;;13.20;9.65;;;;;;;-140.79;100.00;63287.88;5025662;28;20021;-53
2021/12/29 02:59:22;;;;;;;13.13;9.40;;;;;;;-140.79;100.00;63287.88;5025856;28;20148;-52
2021/12/29 03:01:48;;;;;;;13.75;9.63;;;;;;;-140.79;100.00;63287.88;5025617;28;20190;-52
2021/12/29 03:04:14;;;;;;;11.40;8.95;;;;;;;-140.79;100.00;63287.88;5025533;28;20050;-51
2021/12/29 03:06:39;;;;;;;12.77;9.18;;;;;;;-140.79;100.00;63287.88;5023975;28;20045;-51
2021/12/29 03:09:06;;;;;;;13.23;9.10;;;;;;;-140.79;100.00;63287.88;5025492;28;20490;-51
2021/12/29 03:11:31;;;;;;;12.70;9.40;;;;;;;-140.79;100.00;63287.88;5025761;28;20116;-51
2021/12/29 03:13:57;;;;;;;12.85;8.90;;;;;;;-140.79;100.00;63287.88;5025509;28;20030;-52
2021/12/29 03:16:22;;;;;;;14.63;9.88;;;;;;;-140.79;100.00;63287.88;5024420;28;20086;-53
2021/12/29 03:18:48;;;;;;;13.35;9.52;;;;;;;-140.79;100.00;63287.88;5025380;28;20029;-51
2021/12/29 03:21:13;;;;;;;12.98;9.23;;;;;;;-140.79;100.00;63287.88;5024120;28;20033;-50
2021/12/29 03:23:39;;;;;;;12.20;8.70;;;;;;;-140.79;100.00;63287.88;5025112;28;20068;-51
2021/12/29 03:26:06;;;;;;;13.57;9.60;;;;;;;-140.79;100.00;63287.88;5025098;28;20120;-51
2021/12/29 03:28:32;;;;;;;12.63;8.88;;;;;;;-140.79;100.00;63287.88;5024906;28;20083;-52
2021/12/29 03:30:57;;;;;;;13.23;9.25;;;;;;;-140.79;100.00;63287.88;5025152;28;20014;-51
2021/12/29 03:33:25;;;;;;;12.30;9.50;;;;;;;-140.79;100.00;63287.88;5025099;28;20025;-51
2021/12/29 03:36:00;;;;;;;14.25;10.18;;;;;;;-140.79;100.00;63287.88;5025220;28;20021;-51
2021/12/29 03:38:26;;;;;;;12.98;9.52;;;;;;;-140.79;100.00;63287.88;5023208;28;20022;-51
2021/12/29 03:40:51;;;;;;;14.57;10.13;;;;;;;-140.79;100.00;63287.88;5025171;28;20040;-52
2021/12/29 03:43:17;;;;;;;14.45;9.98;;;;;;;-140.79;100.00;63287.88;5024880;28;20021;-53
2021/12/29 03:45:44;;;;;;;13.07;9.80;;;;;;;-140.79;100.00;63287.88;5024761;28;20479;-51
2021/12/29 03:48:10;;;;;;;13.07;9.38;;;;;;;-140.79;100.00;63287.88;5024845;28;20073;-51
2021/12/29 03:50:35;;;;;;;13.10;9.20;;;;;;;-140.79;100.00;63287.88;5024595;28;20075;-52
2021/12/29 03:53:01;;;;;;;13.27;9.60;;;;;;;-140.79;100.00;63287.88;5025006;28;20571;-51
2021/12/29 03:55:26;;;;;;;14.02;10.05;;;;;;;-140.79;100.00;63287.88;5024812;28;20053;-52
2021/12/29 03:57:52;;;;;;;12.80;9.38;;;;;;;-140.79;100.00;63287.88;5024955;28;20041;-53
2021/12/29 04:00:18;;;;;;;13.75;9.60;;;;;;;-140.79;100.00;63287.88;5024864;28;20408;-52
2021/12/29 04:02:44;;;;;;;13.60;9.77;;;;;;;-140.79;100.00;63287.88;5024786;28;20111;-53
2021/12/29 04:05:14;;;;;;;12.38;9.00;;;;;;;-140.79;100.00;63287.88;5024917;28;20037;-53
2021/12/29 04:07:39;;;;;;;13.52;9.43;;;;;;;-140.79;100.00;63287.88;5024689;28;20038;-53
2021/12/29 04:10:05;;;;;;;12.35;9.02;;;;;;;-140.79;100.00;63287.88;5024651;28;20072;-52
2021/12/29 04:12:31;;;;;;;14.07;9.60;;;;;;;-140.79;100.00;63287.88;5024134;28;20052;-53
2021/12/29 04:14:56;;;;;;;12.25;9.00;;;;;;;-140.79;100.00;63287.88;5024754;28;20028;-52
2021/12/29 04:17:28;;;;;;;13.15;9.45;;;;;;;-140.79;100.00;63287.88;5023527;28;20550;-52
2021/12/29 04:22:48;;;;;;;12.80;8.88;;;;;;;-140.79;100.00;63287.88;5004491;28;20127;-52
2021/12/29 04:25:14;;;;;;;11.93;9.05;;;;;;;-140.79;100.00;63287.88;5024704;28;20439;-51
2021/12/29 04:27:39;;;;;;;12.52;9.18;;;;;;;-140.79;100.00;63287.88;5024546;28;20515;-53
2021/12/29 04:30:05;;;;;;;13.13;9.27;;;;;;;-140.79;100.00;63287.88;5028632;28;20026;-54
2021/12/29 04:32:31;;;;;;;12.82;9.27;;;;;;;-140.79;100.00;63287.88;5028209;28;20041;-52
2021/12/29 04:34:56;;;;;;;14.15;9.68;;;;;;;-140.79;100.00;63287.88;5028591;28;20041;-53
2021/12/29 04:37:22;;;;;;;13.63;9.70;;;;;;;-140.79;100.00;63287.88;5028433;28;20041;-51
2021/12/29 04:39:47;;;;;;;12.35;9.05;;;;;;;-140.79;100.00;63287.88;5028302;28;20033;-52
2021/12/29 04:42:12;;;;;;;12.43;9.38;;;;;;;-140.79;100.00;63287.88;5028456;28;20029;-51
2021/12/29 04:44:38;;;;;;;12.93;8.80;;;;;;;-140.79;100.00;63287.88;5028051;28;20037;-52
2021/12/29 04:47:03;;;;;;;13.38;9.88;;;;;;;-140.79;100.00;63287.88;5028163;28;20041;-53
2021/12/29 04:49:39;;;;;;;12.90;9.13;;;;;;;-140.79;100.00;63287.88;5028338;28;20087;-52
2021/12/29 04:52:05;;;;;;;12.60;9.07;;;;;;;-140.79;100.00;63287.88;5028048;28;20021;-53
2021/12/29 04:54:30;;;;;;;13.02;9.50;;;;;;;-140.79;100.00;63287.88;5027602;28;20036;-51
2021/12/29 04:56:56;;;;;;;12.15;9.00;;;;;;;-140.79;100.00;63287.88;5043531;28;20033;-51
2021/12/29 04:59:25;;;;;;;12.30;9.00;;;;;;;-140.79;100.00;63287.88;5026697;28;20098;-52
2021/12/29 05:01:50;;;;;;;12.90;9.32;;;;;;;-140.79;100.00;63287.88;5027922;28;20034;-53
2021/12/29 05:04:21;;;;;;;12.48;9.35;;;;;;;-140.79;100.00;63287.88;5027956;28;20090;-53
2021/12/29 05:09:31;;;;;;;12.95;9.13;;;;;;;-140.79;100.00;63287.88;5027737;28;20103;-52
2021/12/29 05:11:59;;;;;;;13.18;9.05;;;;;;;-140.79;100.00;63287.88;5028046;28;20500;-53
2021/12/29 05:14:24;;;;;;;12.43;9.27;;;;;;;-140.79;100.00;63287.88;5027586;28;20040;-51
2021/12/29 05:16:50;;;;;;;13.25;9.32;;;;;;;-140.79;100.00;63287.88;5027796;28;20025;-52
2021/12/29 05:19:15;;;;;;;12.50;9.43;;;;;;;-140.79;100.00;63287.88;5027496;28;20030;-53
2021/12/29 05:21:40;;;;;;;12.75;9.50;;;;;;;-140.79;100.00;63287.88;5027440;28;20360;-52
2021/12/29 05:24:06;;;;;;;12.73;8.98;;;;;;;-140.79;100.00;63287.88;5027587;28;20083;-52
2021/12/29 05:26:31;;;;;;;12.23;9.30;;;;;;;-140.79;100.00;63287.88;5027132;28;20502;-52
2021/12/29 05:28:57;;;;;;;10.93;8.38;;;;;;;-140.79;100.00;63287.88;5027164;28;20029;-53
2021/12/29 05:31:23;;;;;;;14.00;9.07;;;;;;;-140.79;100.00;63287.88;5027632;28;20037;-52
2021/12/29 05:33:49;;;;;;;12.02;8.98;;;;;;;-140.79;100.00;63287.88;5027319;28;20044;-51
2021/12/29 05:36:14;;;;;;;11.00;8.38;;;;;;;-140.79;100.00;63287.88;5027532;28;20034;-51
2021/12/29 05:38:39;;;;;;;12.60;9.32;;;;;;;-140.79;100.00;63287.88;5026902;28;20044;-52
2021/12/29 05:41:05;;;;;;;11.82;9.18;;;;;;;-140.79;100.00;63287.88;5026236;28;20205;-52
2021/12/29 05:43:30;;;;;;;10.90;8.93;;;;;;;-140.79;100.00;63287.88;5027228;28;20034;-52
2021/12/29 05:45:56;;;;;;;11.73;8.43;;;;;;;-140.79;100.00;63287.88;5027139;28;20776;-53
2021/12/29 05:48:21;;;;;;;12.57;8.55;;;;;;;-140.79;100.00;63287.88;5025581;28;20095;-51
2021/12/29 05:50:47;;;;;;;11.85;9.02;;;;;;;-140.79;100.00;63287.88;5026990;28;20029;-51
2021/12/29 05:53:12;;;;;;;12.50;8.52;;;;;;;-140.79;100.00;63287.88;5026877;28;20084;-53
2021/12/29 05:55:41;;;;;;;11.70;8.68;;;;;;;-140.79;100.00;63287.88;5027050;28;20021;-51
2021/12/29 05:58:07;;;;;;;10.88;8.25;;;;;;;-140.79;100.00;63287.88;5025549;28;20037;-51
2021/12/29 06:00:33;;;;;;;12.07;8.95;;;;;;;-140.79;100.00;63287.88;5041949;28;20030;-51
2021/12/29 06:02:58;;;;;;;13.27;9.75;;;;;;;-140.79;100.00;63287.88;5026747;28;20115;-54
2021/12/29 06:05:24;;;;;;;11.70;8.95;;;;;;;-140.79;100.00;63287.88;5027021;28;20033;-51
2021/12/29 06:07:49;;;;;;;12.90;8.68;;;;;;;-140.79;100.00;63287.88;5026805;28;20105;-51
2021/12/29 06:10:15;;;;;;;10.80;8.63;;;;;;;-140.79;100.00;63287.88;5026738;28;20029;-51
2021/12/29 06:12:40;;;;;;;12.55;9.55;;;;;;;-140.79;100.00;63287.88;5026421;28;20033;-51
2021/12/29 06:15:06;;;;;;;11.65;8.98;;;;;;;-140.79;100.00;63287.88;5026560;28;20535;-51
2021/12/29 06:17:31;;;;;;;11.00;8.70;;;;;;;-140.79;100.00;63287.88;5026678;28;20068;-51
2021/12/29 06:19:57;;;;;;;11.95;8.52;;;;;;;-140.79;100.00;63287.88;5026581;28;20025;-52
2021/12/29 06:22:23;;;;;;;12.40;9.15;;;;;;;-140.79;100.00;63287.88;5026327;28;20049;-51
2021/12/29 06:24:52;;;;;;;12.48;9.68;;;;;;;-140.79;100.00;63287.88;5041700;28;20037;-51
2021/12/29 06:27:21;;;;;;;11.07;8.52;;;;;;;-140.79;100.00;63287.88;5026451;28;20034;-52
2021/12/29 06:29:46;;;;;;;11.68;8.48;;;;;;;-140.79;100.00;63287.88;5019910;28;20029;-52
2021/12/29 06:32:11;;;;;;;10.77;8.30;;;;;;;-140.79;100.00;63287.88;5026629;28;20036;-52
2021/12/29 06:34:37;;;;;;;11.52;8.23;;;;;;;-140.79;100.00;63287.88;5026244;28;20488;-51
2021/12/29 06:37:08;;;;;;;11.07;8.70;;;;;;;-140.79;100.00;63287.88;5026446;28;20661;-52
2021/12/29 06:39:35;;;;;;;10.32;7.82;;;;;;;-140.79;100.00;63287.88;5026091;28;20029;-52
2021/12/29 06:42:00;;;;;;;11.77;7.95;;;;;;;-140.79;100.00;63287.88;5026492;28;20496;-53
2021/12/29 06:44:25;;;;;;;10.75;8.10;;;;;;;-140.79;100.00;63287.88;5026138;28;20040;-51
2021/12/29 06:46:51;;;;;;;11.25;8.18;;;;;;;-140.79;100.00;63287.88;5026270;28;20040;-51
2021/12/29 06:49:16;;;;;;;10.35;7.80;;;;;;;-140.79;100.00;63287.88;5041574;28;20033;-53
2021/12/29 06:51:42;;;;;;;11.20;7.95;;;;;;;-140.79;100.00;63287.88;5025711;28;20030;-53
2021/12/29 06:54:08;;;;;;;11.10;8.18;;;;;;;-140.79;100.00;63287.88;5024351;28;20033;-52
2021/12/29 06:56:34;;;;;;;11.73;8.15;;;;;;;-140.79;100.00;63287.88;5025647;28;20042;-53
2021/12/29 06:58:59;;;;;;;9.73;7.45;;;;;;;-140.79;100.00;63287.88;5025548;28;20041;-52
2021/12/29 07:01:24;;;;;;;12.25;8.35;;;;;;;-140.79;100.00;63287.88;5025441;28;20033;-53
2021/12/29 07:03:50;;;;;;;11.18;7.68;;;;;;;-140.79;100.00;63287.88;5025147;28;20029;-52
2021/12/29 07:06:15;;;;;;;11.07;7.75;;;;;;;-140.79;100.00;63287.88;5025670;28;20037;-51
2021/12/29 07:08:41;;;;;;;12.30;8.48;;;;;;;-140.79;100.00;63287.88;5025493;28;20037;-52
2021/12/29 07:11:06;;;;;;;10.98;8.10;;;;;;;-140.79;100.00;63287.88;5025266;28;20033;-54
2021/12/29 07:13:32;;;;;;;10.02;7.43;;;;;;;-140.79;100.00;63287.88;5025276;28;20049;-54
2021/12/29 07:15:57;;;;;;;11.70;8.23;;;;;;;-140.79;100.00;63287.88;5025143;28;20010;-55
2021/12/29 07:18:22;;;;;;;10.82;7.57;;;;;;;-140.79;100.00;63287.88;5041561;28;20024;-52
2021/12/29 07:20:48;;;;;;;10.65;7.82;;;;;;;-140.79;100.00;63287.88;5026340;28;20032;-54
2021/12/29 07:23:13;;;;;;;10.38;8.13;;;;;;;-140.79;100.00;63287.88;5025429;28;20045;-53
2021/12/29 07:25:39;;;;;;;8.77;6.93;;;;;;;-140.79;100.00;63287.88;5025061;28;20076;-54
2021/12/29 07:28:04;;;;;;;10.02;7.85;;;;;;;-140.79;100.00;63287.88;5025408;28;20029;-53
2021/12/29 07:30:30;;;;;;;11.07;7.70;;;;;;;-140.79;100.00;63287.88;5024187;28;20033;-55
2021/12/29 07:32:55;;;;;;;10.15;8.15;;;;;;;-140.79;100.00;63287.88;5022747;28;20036;-52
2021/12/29 07:35:20;;;;;;;9.73;7.18;;;;;;;-140.79;100.00;63287.88;5022933;28;20040;-53
2021/12/29 07:37:46;;;;;;;8.80;6.88;;;;;;;-140.79;100.00;63287.88;5019102;28;20033;-53
2021/12/29 07:40:12;;;;;;;10.27;7.32;;;;;;;-140.79;100.00;63287.88;5005870;28;20539;-53
2021/12/29 07:42:38;;;;;;;9.82;7.80;;;;;;;-140.79;100.00;63287.88;5023785;28;20171;-53
2021/12/29 07:45:07;;;;;;;9.93;7.88;;;;;;;-140.79;100.00;63287.88;5009398;28;20049;-52
2021/12/29 07:47:33;;;;;;;10.50;7.53;;;;;;;-140.79;100.00;63287.88;5006785;28;20510;-52
2021/12/29 07:49:59;;;;;;;9.90;7.90;;;;;;;-140.79;100.00;63287.88;5018527;28;20025;-55
2021/12/29 07:52:24;;;;;;;10.38;7.43;;;;;;;-140.79;100.00;63287.88;5025320;28;20025;-54
2021/12/29 07:54:49;;;;;;;9.63;7.57;;;;;;;-140.79;100.00;63287.88;5009534;28;20539;-53
2021/12/29 07:57:15;;;;;;;11.18;7.68;;;;;;;-140.79;100.00;63287.88;5011686;28;20040;-53
2021/12/29 07:59:40;;;;;;;8.88;7.38;;;;;;;-140.79;100.00;63287.88;5040349;28;20921;-53
2021/12/29 08:02:07;;;;;;;9.85;7.63;;;;;;;-140.79;100.00;63287.88;5025007;28;20036;-53
2021/12/29 08:04:32;;;;;;;9.60;7.22;;;;;;;-140.79;100.00;63287.88;5034334;28;21960;-52
2021/12/29 08:06:58;;;;;;;9.48;7.00;;;;;;;-140.79;100.00;63287.88;5005487;28;20481;-53
2021/12/29 08:09:24;;;;;;;9.48;7.35;;;;;;;-140.79;100.00;63287.88;5005570;28;20026;-53
2021/12/29 08:11:49;;;;;;;10.57;8.27;;;;;;;-140.79;100.00;63287.88;5016090;28;20037;-53
2021/12/29 08:14:15;;;;;;;10.63;7.55;;;;;;;-140.79;100.00;63287.88;5021596;28;20029;-53
2021/12/29 08:16:40;;;;;;;10.73;7.78;;;;;;;-140.79;100.00;63287.88;5024497;28;20585;-53
2021/12/29 08:19:06;;;;;;;9.30;7.35;;;;;;;-140.79;100.00;63287.88;5024913;28;20026;-53
2021/12/29 08:21:31;;;;;;;10.02;7.75;;;;;;;-140.79;100.00;63287.88;5024663;28;20033;-54
2021/12/29 08:23:56;;;;;;;9.80;7.15;;;;;;;-140.79;100.00;63287.88;5024705;28;20041;-52
2021/12/29 08:26:22;;;;;;;10.02;7.68;;;;;;;-140.79;100.00;63287.88;5024858;28;20029;-53
2021/12/29 08:28:48;;;;;;;8.93;7.60;;;;;;;-140.79;100.00;63287.88;5024371;28;20380;-53
2021/12/29 08:31:13;;;;;;;11.13;7.68;;;;;;;-140.79;100.00;63287.88;5024961;28;20026;-53
2021/12/29 08:33:39;;;;;;;9.10;7.18;;;;;;;-140.79;100.00;63287.88;5024776;28;20025;-53
2021/12/29 08:36:07;;;;;;;10.48;7.75;;;;;;;-140.79;100.00;63287.88;5024845;28;20388;-53
2021/12/29 08:38:33;;;;;;;10.45;7.50;;;;;;;-140.79;100.00;63287.88;5024206;28;20038;-53
2021/12/29 08:40:59;;;;;;;10.13;7.82;;;;;;;-140.79;100.00;63287.88;5024684;28;20588;-56
2021/12/29 08:43:24;;;;;;;9.70;7.50;;;;;;;-140.79;100.00;63287.88;5024591;28;20029;-53
2021/12/29 08:45:50;;;;;;;10.23;7.55;;;;;;;-140.79;100.00;63287.88;5023273;28;20029;-58
2021/12/29 08:48:15;;;;;;;9.95;7.10;;;;;;;-140.79;100.00;63287.88;5024596;28;20559;-54
2021/12/29 08:50:41;;;;;;;10.63;7.78;;;;;;;-140.79;100.00;63287.88;5024245;28;20401;-58
2021/12/29 08:53:06;;;;;;;10.15;6.93;;;;;;;-140.79;100.00;63287.88;5024709;28;20033;-52
2021/12/29 08:55:32;;;;;;;9.77;7.50;;;;;;;-140.79;100.00;63287.88;5024474;28;20091;-53
2021/12/29 08:57:58;;;;;;;8.65;6.93;;;;;;;-140.79;100.00;63287.88;5023210;28;20033;-54
2021/12/29 09:00:23;;;;;;;8.73;6.90;;;;;;;-140.79;100.00;63287.88;5012743;28;20041;-53
2021/12/29 09:02:49;;;;;;;9.20;7.55;;;;;;;-140.79;100.00;63287.88;5005004;28;20033;-53
2021/12/29 09:05:16;;;;;;;9.55;7.30;;;;;;;-140.79;100.00;63287.88;5005619;28;20030;-52
2021/12/29 09:07:42;;;;;;;9.57;7.13;;;;;;;-140.79;100.00;63287.88;5005554;28;20026;-52
2021/12/29 09:10:08;;;;;;;9.98;7.68;;;;;;;-140.79;100.00;63287.88;5005755;28;20022;-52
2021/12/29 09:12:33;;;;;;;9.18;6.90;;;;;;;-140.79;100.00;63287.88;5006199;28;20030;-52
2021/12/29 09:14:58;;;;;;;8.30;6.78;;;;;;;-140.79;100.00;63287.88;5006995;28;20033;-52
2021/12/29 09:17:24;;;;;;;24.30;14.95;;;;;;;-140.79;100.00;63287.88;5008964;28;20037;-53
2021/12/29 09:19:50;;;;;;;13.63;10.50;;;;;;;-140.79;100.00;63287.88;5009845;28;20037;-52
2021/12/29 09:22:15;;;;;;;12.60;8.90;;;;;;;-140.79;100.00;63287.88;5008533;28;20041;-52
2021/12/29 09:24:42;;;;;;;13.15;8.02;;;;;;;-140.79;100.00;63287.88;5016876;28;20028;-54
2021/12/29 09:27:08;;;;;;;12.13;8.65;;;;;;;-140.79;100.00;63287.88;5027787;28;20502;-52
2021/12/29 09:29:34;;;;;;;10.25;7.90;;;;;;;-140.79;100.00;63287.88;5028119;28;20029;-52
2021/12/29 09:32:00;;;;;;;9.80;7.35;;;;;;;-140.79;100.00;63287.88;5027459;28;20488;-53
2021/12/29 09:34:26;;;;;;;10.70;7.57;;;;;;;-140.79;100.00;63287.88;5027959;28;20038;-53
2021/12/29 09:36:51;;;;;;;10.43;7.97;;;;;;;-140.79;100.00;63287.88;5027657;28;20109;-52
2021/12/29 09:39:17;;;;;;;9.93;7.25;;;;;;;-140.79;100.00;63287.88;5022143;28;20088;-53
2021/12/29 09:41:42;;;;;;;10.90;8.10;;;;;;;-140.79;100.00;63287.88;5017615;28;20041;-53
2021/12/29 09:44:09;;;;;;;10.90;7.70;;;;;;;-140.79;100.00;63287.88;5027551;28;20048;-52
2021/12/29 09:46:36;;;;;;;10.50;7.45;;;;;;;-140.79;100.00;63287.88;5016746;28;20534;-53
2021/12/29 09:49:02;;;;;;;10.38;7.70;;;;;;;-140.79;100.00;63287.88;5023161;28;20985;-52
2021/12/29 09:51:27;;;;;;;8.60;7.15;;;;;;;-140.79;100.00;63287.88;5015383;28;20088;-52
2021/12/29 09:53:53;;;;;;;9.45;7.18;;;;;;;-140.79;100.00;63287.88;5027556;28;20415;-53
2021/12/29 09:56:18;;;;;;;9.68;7.28;;;;;;;-140.79;100.00;63287.88;5027559;28;20536;-53
2021/12/29 09:58:44;;;;;;;10.90;7.57;;;;;;;-140.79;100.00;63287.88;5025762;28;20578;-53
2021/12/29 10:01:10;;;;;;;10.65;7.13;;;;;;;-140.79;100.00;63287.88;5013939;28;20028;-54
2021/12/29 10:03:35;;;;;;;9.75;7.18;;;;;;;-140.79;100.00;63287.88;5027153;28;20021;-54
2021/12/29 10:06:03;;;;;;;9.00;7.07;;;;;;;-140.79;100.00;63287.88;5027244;28;20128;-52
2021/12/29 10:08:37;;;;;;;10.75;7.43;;;;;;;-140.79;100.00;63287.88;5027058;28;20052;-52
2021/12/29 10:11:18;;;;;;;9.95;7.55;;;;;;;-140.79;100.00;63287.88;5027246;28;20018;-53
2021/12/29 10:13:46;;;;;;;11.13;8.18;;;;;;;-140.79;100.00;63287.88;5027031;28;20503;-53
2021/12/29 10:16:16;;;;;;;9.57;7.00;;;;;;;-140.79;100.00;63287.88;5026847;28;20498;-54
2021/12/29 10:18:43;;;;;;;11.00;7.28;;;;;;;-140.79;100.00;63287.88;5026903;28;20034;-53
2021/12/29 10:21:16;;;;;;;9.20;6.85;;;;;;;-140.79;100.00;63287.88;5026450;28;20110;-54
2021/12/29 10:23:46;;;;;;;10.00;7.35;;;;;;;-140.79;100.00;63287.88;5026184;28;20046;-53
2021/12/29 10:26:16;;;;;;;9.60;7.13;;;;;;;-140.79;100.00;63287.88;5025788;28;20045;-54
2021/12/29 10:28:50;;;;;;;9.00;7.10;;;;;;;-140.79;100.00;63287.88;5025985;28;20527;-54
2021/12/29 10:31:22;;;;;;;8.90;6.90;;;;;;;-140.79;100.00;63287.88;5024388;28;20509;-54
2021/12/29 10:33:52;;;;;;;8.52;6.53;;;;;;;-140.79;100.00;63287.88;5026368;28;20044;-52
2021/12/29 10:36:19;;;;;;;;;;;;;;;-140.79;100.00;63287.88;5027140;28;20064;-53
2021/12/29 10:38:47;;;;;;;9.70;7.30;;;;;;;-140.79;100.00;63287.88;5026462;28;19921;-52
2021/12/29 10:41:12;;;;;;;9.85;6.95;;;;;;;-140.79;100.00;63287.88;5025431;28;20021;-52
2021/12/29 10:43:40;;;;;;;9.77;6.60;;;;;;;-140.79;100.00;63287.88;5006781;28;20817;-53
2021/12/29 10:46:07;;;;;;;9.63;7.35;;;;;;;-140.79;100.00;63287.88;5001955;28;20044;-52
2021/12/29 10:48:33;;;;;;;8.98;7.28;;;;;;;-140.79;100.00;63287.88;5024666;28;20114;-52
2021/12/29 10:51:07;;;;;;;8.73;6.57;;;;;;;-140.79;100.00;63287.88;5016922;28;20025;-53
2021/12/29 10:53:34;;;;;;;10.05;6.97;;;;;;;-140.79;100.00;63287.88;5007575;28;20037;-52
2021/12/29 10:56:00;;;;;;;11.13;7.20;;;;;;;-140.79;100.00;63287.88;5006848;28;20026;-53
2021/12/29 10:58:27;;;;;;;9.15;7.03;;;;;;;-140.79;100.00;63287.88;5007721;28;20428;-51
2021/12/29 11:01:05;;;;;;;10.25;7.07;;;;;;;-140.79;100.00;63287.88;5006711;28;20037;-53
2021/12/29 11:03:31;;;;;;;8.70;6.93;;;;;;;-140.79;100.00;63287.88;5005585;28;20013;-53
2021/12/29 11:06:01;;;;;;;10.30;7.25;;;;;;;-140.79;100.00;63287.88;5017836;28;20462;-52